sensor_id;sensor_type;location;lat;lon;timestamp;temperature;humidity
20885;DHT22;10602;48.000;9.654;2023-04-24T06:16:44;8.50;99.90
20885;DHT22;10602;48.000;9.654;2023-04-24T06:19:12;8.40;99.90
20885;DHT22;10602;48.000;9.654;2023-04-24T06:21:39;8.40;99.90
20885;DHT22;10602;48.000;9.654;2023-04-24T06:24:07;8.30;99.90
20885;DHT22;10602;48.000;9.654;2023-04-24T06:26:35;8.40;99.90
20885;DHT22;10602;48.000;9.654;2023-04-24T06:29:02;8.30;99.90
20885;DHT22;10602;48.000;9.654;2023-04-24T06:31:30;8.30;99.90
20885;DHT22;10602;48.000;9.654;2023-04-24T06:33:59;8.40;99.90
20885;DHT22;10602;48.000;9.654;2023-04-24T06:36:28;8.50;99.90
20885;DHT22;10602;48.000;9.654;2023-04-24T06:38:55;8.60;99.90
20885;DHT22;10602;48.000;9.654;2023-04-24T06:41:23;8.50;61.00
20885;DHT22;10602;48.000;9.654;2023-04-24T06:43:51;8.30;1.00
20885;DHT22;10602;48.000;9.654;2023-04-24T06:46:19;8.10;1.00
20885;DHT22;10602;48.000;9.654;2023-04-24T06:48:48;8.10;19.70
20885;DHT22;10602;48.000;9.654;2023-04-24T06:51:15;8.10;20.80
20885;DHT22;10602;48.000;9.654;2023-04-24T06:53:44;8.20;21.80
20885;DHT22;10602;48.000;9.654;2023-04-24T06:56:12;8.20;1.00
20885;DHT22;10602;48.000;9.654;2023-04-24T06:58:39;8.30;9.10
20885;DHT22;10602;48.000;9.654;2023-04-24T07:01:06;8.50;28.80
20885;DHT22;10602;48.000;9.654;2023-04-24T07:03:34;8.70;1.00
20885;DHT22;10602;48.000;9.654;2023-04-24T07:06:02;8.90;1.00
20885;DHT22;10602;48.000;9.654;2023-04-24T07:08:29;9.00;1.00
20885;DHT22;10602;48.000;9.654;2023-04-24T07:10:57;9.40;1.00
20885;DHT22;10602;48.000;9.654;2023-04-24T07:13:25;9.60;1.00
20885;DHT22;10602;48.000;9.654;2023-04-24T07:15:54;9.80;1.00
20885;DHT22;10602;48.000;9.654;2023-04-24T07:18:23;10.00;1.00
20885;DHT22;10602;48.000;9.654;2023-04-24T07:20:50;10.10;1.00
20885;DHT22;10602;48.000;9.654;2023-04-24T07:23:19;10.50;1.00
20885;DHT22;10602;48.000;9.654;2023-04-24T07:25:46;11.10;1.00
20885;DHT22;10602;48.000;9.654;2023-04-24T07:28:14;11.40;1.00
20885;DHT22;10602;48.000;9.654;2023-04-24T07:30:42;11.60;1.00
20885;DHT22;10602;48.000;9.654;2023-04-24T07:33:09;11.50;99.90
20885;DHT22;10602;48.000;9.654;2023-04-24T07:35:38;11.30;1.00
20885;DHT22;10602;48.000;9.654;2023-04-24T07:38:06;11.00;1.00
20885;DHT22;10602;48.000;9.654;2023-04-24T07:40:33;11.00;99.90
20885;DHT22;10602;48.000;9.654;2023-04-24T07:43:01;11.20;1.00
20885;DHT22;10602;48.000;9.654;2023-04-24T07:45:28;10.70;99.90
20885;DHT22;10602;48.000;9.654;2023-04-24T07:47:57;10.50;1.00
20885;DHT22;10602;48.000;9.654;2023-04-24T07:50:25;10.40;1.00
20885;DHT22;10602;48.000;9.654;2023-04-24T07:52:52;10.90;30.80
20885;DHT22;10602;48.000;9.654;2023-04-24T07:55:20;11.30;99.90
20885;DHT22;10602;48.000;9.654;2023-04-24T07:57:47;11.70;1.00
20885;DHT22;10602;48.000;9.654;2023-04-24T08:00:21;11.70;1.00
20885;DHT22;10602;48.000;9.654;2023-04-24T08:02:44;12.10;1.00
20885;DHT22;10602;48.000;9.654;2023-04-24T08:05:11;12.30;99.90
20885;DHT22;10602;48.000;9.654;2023-04-24T08:07:39;12.40;99.90
20885;DHT22;10602;48.000;9.654;2023-04-24T08:10:10;12.60;1.00
20885;DHT22;10602;48.000;9.654;2023-04-24T08:12:38;12.50;1.00
20885;DHT22;10602;48.000;9.654;2023-04-24T08:15:07;12.60;1.00
20885;DHT22;10602;48.000;9.654;2023-04-24T08:17:35;12.50;1.00
20885;DHT22;10602;48.000;9.654;2023-04-24T08:20:03;11.90;1.00
20885;DHT22;10602;48.000;9.654;2023-04-24T08:22:31;11.50;1.00
20885;DHT22;10602;48.000;9.654;2023-04-24T08:25:00;11.20;99.90
20885;DHT22;10602;48.000;9.654;2023-04-24T08:27:28;11.10;1.00
20885;DHT22;10602;48.000;9.654;2023-04-24T08:29:56;11.20;99.90
20885;DHT22;10602;48.000;9.654;2023-04-24T08:32:25;11.30;1.00
20885;DHT22;10602;48.000;9.654;2023-04-24T08:34:55;11.50;43.70
20885;DHT22;10602;48.000;9.654;2023-04-24T08:37:23;12.00;99.90
20885;DHT22;10602;48.000;9.654;2023-04-24T08:39:51;12.30;99.90
20885;DHT22;10602;48.000;9.654;2023-04-24T08:42:20;12.60;99.90
20885;DHT22;10602;48.000;9.654;2023-04-24T08:44:49;12.50;1.00
20885;DHT22;10602;48.000;9.654;2023-04-24T08:47:18;12.70;1.00
20885;DHT22;10602;48.000;9.654;2023-04-24T08:49:48;12.50;99.90
20885;DHT22;10602;48.000;9.654;2023-04-24T08:52:18;12.20;99.90
20885;DHT22;10602;48.000;9.654;2023-04-24T08:54:46;12.20;99.90
20885;DHT22;10602;48.000;9.654;2023-04-24T08:57:15;11.90;1.00
20885;DHT22;10602;48.000;9.654;2023-04-24T08:59:44;11.90;1.00
20885;DHT22;10602;48.000;9.654;2023-04-24T09:02:11;12.10;1.00
20885;DHT22;10602;48.000;9.654;2023-04-24T09:04:40;12.10;1.00
20885;DHT22;10602;48.000;9.654;2023-04-24T09:07:10;12.00;99.90
20885;DHT22;10602;48.000;9.654;2023-04-24T09:09:39;11.90;90.70
20885;DHT22;10602;48.000;9.654;2023-04-24T09:12:08;12.30;91.50
20885;DHT22;10602;48.000;9.654;2023-04-24T09:14:37;12.70;5.60
20885;DHT22;10602;48.000;9.654;2023-04-24T09:17:08;12.40;1.00
20885;DHT22;10602;48.000;9.654;2023-04-24T09:19:36;12.30;1.00
20885;DHT22;10602;48.000;9.654;2023-04-24T09:22:07;12.80;1.00
20885;DHT22;10602;48.000;9.654;2023-04-24T09:24:35;13.20;1.00
20885;DHT22;10602;48.000;9.654;2023-04-24T09:27:04;14.10;1.00
20885;DHT22;10602;48.000;9.654;2023-04-24T09:29:31;14.60;1.00
20885;DHT22;10602;48.000;9.654;2023-04-24T09:31:59;14.00;1.00
20885;DHT22;10602;48.000;9.654;2023-04-24T09:34:28;14.20;1.00
20885;DHT22;10602;48.000;9.654;2023-04-24T09:36:56;13.60;1.00
20885;DHT22;10602;48.000;9.654;2023-04-24T09:39:23;13.00;1.00
20885;DHT22;10602;48.000;9.654;2023-04-24T09:41:54;12.80;1.00
20885;DHT22;10602;48.000;9.654;2023-04-24T09:44:27;12.20;1.00
20885;DHT22;10602;48.000;9.654;2023-04-24T09:46:59;12.60;1.00
20885;DHT22;10602;48.000;9.654;2023-04-24T09:49:30;12.80;1.00
20885;DHT22;10602;48.000;9.654;2023-04-24T09:52:11;12.90;1.00
20885;DHT22;10602;48.000;9.654;2023-04-24T09:54:36;12.60;1.00
20885;DHT22;10602;48.000;9.654;2023-04-24T09:57:07;12.60;1.00
20885;DHT22;10602;48.000;9.654;2023-04-24T09:59:34;13.20;1.00
20885;DHT22;10602;48.000;9.654;2023-04-24T10:02:02;13.30;1.00
20885;DHT22;10602;48.000;9.654;2023-04-24T10:04:30;13.40;1.00
20885;DHT22;10602;48.000;9.654;2023-04-24T10:06:58;13.20;1.00
20885;DHT22;10602;48.000;9.654;2023-04-24T10:09:27;12.50;1.00
20885;DHT22;10602;48.000;9.654;2023-04-24T10:11:55;12.40;1.00
20885;DHT22;10602;48.000;9.654;2023-04-24T10:14:24;12.70;1.00
20885;DHT22;10602;48.000;9.654;2023-04-24T10:16:54;12.70;1.00
